sensor_id;sensor_type;location;lat;lon;timestamp;temperature;humidity
31521;DHT22;69043;51.224;4.424;2023-07-30T10:37:26;21.80;99.90
31521;DHT22;69043;51.224;4.424;2023-07-30T10:39:51;23.20;99.90
31521;DHT22;69043;51.224;4.424;2023-07-30T10:42:17;23.50;99.90
31521;DHT22;69043;51.224;4.424;2023-07-30T10:44:44;23.30;99.90
31521;DHT22;69043;51.224;4.424;2023-07-30T10:47:11;23.20;99.90
31521;DHT22;69043;51.224;4.424;2023-07-30T10:49:38;23.20;99.90
31521;DHT22;69043;51.224;4.424;2023-07-30T10:52:04;23.50;99.90
31521;DHT22;69043;51.224;4.424;2023-07-30T10:54:34;23.60;99.90
31521;DHT22;69043;51.224;4.424;2023-07-30T10:57:00;23.50;99.90
31521;DHT22;69043;51.224;4.424;2023-07-30T10:59:26;23.30;99.90
31521;DHT22;69043;51.224;4.424;2023-07-30T11:01:52;22.90;99.90
31521;DHT22;69043;51.224;4.424;2023-07-30T11:04:19;22.70;99.90
31521;DHT22;69043;51.224;4.424;2023-07-30T11:06:47;22.70;99.90
31521;DHT22;69043;51.224;4.424;2023-07-30T11:09:25;23.00;99.90
31521;DHT22;69043;51.224;4.424;2023-07-30T11:11:52;23.20;99.90
31521;DHT22;69043;51.224;4.424;2023-07-30T11:14:23;23.20;99.90
31521;DHT22;69043;51.224;4.424;2023-07-30T11:19:18;23.20;99.90
31521;DHT22;69043;51.224;4.424;2023-07-30T11:21:48;23.20;99.90
31521;DHT22;69043;51.224;4.424;2023-07-30T11:24:14;23.30;99.90
31521;DHT22;69043;51.224;4.424;2023-07-30T11:26:40;23.30;99.90
31521;DHT22;69043;51.224;4.424;2023-07-30T11:29:19;23.30;99.90
31521;DHT22;69043;51.224;4.424;2023-07-30T11:31:46;23.40;99.90
31521;DHT22;69043;51.224;4.424;2023-07-30T11:34:13;23.80;99.90
31521;DHT22;69043;51.224;4.424;2023-07-30T11:36:40;24.50;99.90
31521;DHT22;69043;51.224;4.424;2023-07-30T11:39:07;25.30;99.90
31521;DHT22;69043;51.224;4.424;2023-07-30T11:41:33;25.50;99.90
31521;DHT22;69043;51.224;4.424;2023-07-30T11:43:59;25.90;99.90
31521;DHT22;69043;51.224;4.424;2023-07-30T11:46:25;25.80;99.90
31521;DHT22;69043;51.224;4.424;2023-07-30T11:48:52;25.70;99.90
31521;DHT22;69043;51.224;4.424;2023-07-30T11:51:22;25.30;99.90
31521;DHT22;69043;51.224;4.424;2023-07-30T11:53:57;24.80;99.90
31521;DHT22;69043;51.224;4.424;2023-07-30T11:56:25;24.30;99.90
31521;DHT22;69043;51.224;4.424;2023-07-30T11:58:56;24.10;99.90
31521;DHT22;69043;51.224;4.424;2023-07-30T12:01:24;24.70;99.90
31521;DHT22;69043;51.224;4.424;2023-07-30T12:03:50;25.60;99.90
31521;DHT22;69043;51.224;4.424;2023-07-30T12:06:18;26.40;99.90
31521;DHT22;69043;51.224;4.424;2023-07-30T12:08:44;26.00;99.90
31521;DHT22;69043;51.224;4.424;2023-07-30T12:11:10;25.40;99.90
31521;DHT22;69043;51.224;4.424;2023-07-30T12:13:44;25.00;99.90
31521;DHT22;69043;51.224;4.424;2023-07-30T12:16:15;25.00;99.90
31521;DHT22;69043;51.224;4.424;2023-07-30T12:18:41;24.90;99.90
31521;DHT22;69043;51.224;4.424;2023-07-30T12:21:07;24.80;99.90
31521;DHT22;69043;51.224;4.424;2023-07-30T12:23:39;25.20;99.90
31521;DHT22;69043;51.224;4.424;2023-07-30T12:26:05;25.60;99.90
31521;DHT22;69043;51.224;4.424;2023-07-30T12:28:32;25.40;99.90
31521;DHT22;69043;51.224;4.424;2023-07-30T12:30:58;25.30;99.90
31521;DHT22;69043;51.224;4.424;2023-07-30T12:33:23;25.20;99.90
31521;DHT22;69043;51.224;4.424;2023-07-30T12:35:49;25.20;99.90
31521;DHT22;69043;51.224;4.424;2023-07-30T12:38:15;25.40;99.90
31521;DHT22;69043;51.224;4.424;2023-07-30T12:40:41;25.90;99.90
31521;DHT22;69043;51.224;4.424;2023-07-30T12:43:07;26.40;99.90
31521;DHT22;69043;51.224;4.424;2023-07-30T12:45:34;26.20;99.90
31521;DHT22;69043;51.224;4.424;2023-07-30T12:48:01;25.80;99.90
31521;DHT22;69043;51.224;4.424;2023-07-30T12:50:27;25.60;99.90
31521;DHT22;69043;51.224;4.424;2023-07-30T12:52:52;25.60;99.90
31521;DHT22;69043;51.224;4.424;2023-07-30T12:55:18;26.50;99.90
31521;DHT22;69043;51.224;4.424;2023-07-30T12:57:44;26.40;99.60
31521;DHT22;69043;51.224;4.424;2023-07-30T13:00:10;27.00;99.90
31521;DHT22;69043;51.224;4.424;2023-07-30T13:02:36;27.20;98.40
31521;DHT22;69043;51.224;4.424;2023-07-30T13:05:02;27.70;97.90
31521;DHT22;69043;51.224;4.424;2023-07-30T13:07:29;28.10;97.00
31521;DHT22;69043;51.224;4.424;2023-07-30T13:10:05;28.70;95.90
31521;DHT22;69043;51.224;4.424;2023-07-30T13:12:31;29.40;94.90
31521;DHT22;69043;51.224;4.424;2023-07-30T13:14:57;29.10;94.30
31521;DHT22;69043;51.224;4.424;2023-07-30T13:17:23;29.10;94.10
31521;DHT22;69043;51.224;4.424;2023-07-30T13:19:48;30.80;94.20
31521;DHT22;69043;51.224;4.424;2023-07-30T13:22:14;31.10;90.80
31521;DHT22;69043;51.224;4.424;2023-07-30T13:24:40;30.60;90.90
31521;DHT22;69043;51.224;4.424;2023-07-30T13:27:05;31.00;90.60
31521;DHT22;69043;51.224;4.424;2023-07-30T13:29:31;30.40;90.70
31521;DHT22;69043;51.224;4.424;2023-07-30T13:31:57;29.90;90.70
31521;DHT22;69043;51.224;4.424;2023-07-30T13:34:24;29.70;91.00
31521;DHT22;69043;51.224;4.424;2023-07-30T13:36:50;30.30;90.50
31521;DHT22;69043;51.224;4.424;2023-07-30T13:39:15;29.70;90.60
31521;DHT22;69043;51.224;4.424;2023-07-30T13:41:41;29.30;91.10
31521;DHT22;69043;51.224;4.424;2023-07-30T13:44:07;29.30;91.10
31521;DHT22;69043;51.224;4.424;2023-07-30T13:46:32;30.40;90.50
31521;DHT22;69043;51.224;4.424;2023-07-30T13:48:58;30.20;90.40
31521;DHT22;69043;51.224;4.424;2023-07-30T13:51:24;29.90;89.70
31521;DHT22;69043;51.224;4.424;2023-07-30T13:53:49;28.30;90.90
31521;DHT22;69043;51.224;4.424;2023-07-30T13:56:15;27.70;91.90
31521;DHT22;69043;51.224;4.424;2023-07-30T13:58:43;28.20;91.20
31521;DHT22;69043;51.224;4.424;2023-07-30T14:01:09;29.50;90.20
31521;DHT22;69043;51.224;4.424;2023-07-30T14:03:35;30.00;89.00
31521;DHT22;69043;51.224;4.424;2023-07-30T14:06:01;30.60;87.80
31521;DHT22;69043;51.224;4.424;2023-07-30T14:08:26;31.10;85.80
31521;DHT22;69043;51.224;4.424;2023-07-30T14:10:52;31.20;83.80
31521;DHT22;69043;51.224;4.424;2023-07-30T14:13:17;30.60;84.10
31521;DHT22;69043;51.224;4.424;2023-07-30T14:15:43;30.40;84.30
31521;DHT22;69043;51.224;4.424;2023-07-30T14:18:10;30.20;85.10
31521;DHT22;69043;51.224;4.424;2023-07-30T14:20:36;30.70;83.60
31521;DHT22;69043;51.224;4.424;2023-07-30T14:23:03;30.10;84.70
31521;DHT22;69043;51.224;4.424;2023-07-30T14:25:29;30.10;84.70
31521;DHT22;69043;51.224;4.424;2023-07-30T14:27:55;29.20;86.10
31521;DHT22;69043;51.224;4.424;2023-07-30T14:30:21;29.50;87.30
31521;DHT22;69043;51.224;4.424;2023-07-30T14:32:46;30.90;85.20
31521;DHT22;69043;51.224;4.424;2023-07-30T14:35:12;30.60;85.80
31521;DHT22;69043;51.224;4.424;2023-07-30T14:37:38;29.70;87.90
31521;DHT22;69043;51.224;4.424;2023-07-30T14:40:04;29.60;89.90
31521;DHT22;69043;51.224;4.424;2023-07-30T14:42:30;29.60;89.60
31521;DHT22;69043;51.224;4.424;2023-07-30T14:44:55;28.30;91.50
31521;DHT22;69043;51.224;4.424;2023-07-30T14:47:21;27.30;93.10
31521;DHT22;69043;51.224;4.424;2023-07-30T14:49:48;26.80;94.00
31521;DHT22;69043;51.224;4.424;2023-07-30T14:52:13;26.40;94.60
31521;DHT22;69043;51.224;4.424;2023-07-30T14:54:39;26.50;95.00
31521;DHT22;69043;51.224;4.424;2023-07-30T14:57:05;27.10;94.90
31521;DHT22;69043;51.224;4.424;2023-07-30T14:59:31;28.00;94.00
31521;DHT22;69043;51.224;4.424;2023-07-30T15:01:56;27.30;94.50
31521;DHT22;69043;51.224;4.424;2023-07-30T15:04:22;26.50;95.40
31521;DHT22;69043;51.224;4.424;2023-07-30T15:06:49;25.80;96.50
31521;DHT22;69043;51.224;4.424;2023-07-30T15:09:14;25.50;97.20
31521;DHT22;69043;51.224;4.424;2023-07-30T15:11:40;25.20;98.00
31521;DHT22;69043;51.224;4.424;2023-07-30T15:14:06;25.10;97.80
31521;DHT22;69043;51.224;4.424;2023-07-30T15:16:32;25.00;98.40
31521;DHT22;69043;51.224;4.424;2023-07-30T15:18:57;24.60;98.70
31521;DHT22;69043;51.224;4.424;2023-07-30T15:21:23;24.20;99.20
31521;DHT22;69043;51.224;4.424;2023-07-30T15:23:49;23.70;99.90
31521;DHT22;69043;51.224;4.424;2023-07-30T15:26:15;23.20;99.90
31521;DHT22;69043;51.224;4.424;2023-07-30T15:28:41;22.90;99.90
31521;DHT22;69043;51.224;4.424;2023-07-30T15:31:07;22.40;99.90
31521;DHT22;69043;51.224;4.424;2023-07-30T15:33:32;21.70;99.90
31521;DHT22;69043;51.224;4.424;2023-07-30T15:35:58;21.00;99.90
31521;DHT22;69043;51.224;4.424;2023-07-30T15:38:23;20.50;99.90
31521;DHT22;69043;51.224;4.424;2023-07-30T15:40:49;20.30;99.90
31521;DHT22;69043;51.224;4.424;2023-07-30T15:43:15;20.00;99.90
31521;DHT22;69043;51.224;4.424;2023-07-30T15:45:40;19.90;99.90
31521;DHT22;69043;51.224;4.424;2023-07-30T15:48:09;19.90;99.90
31521;DHT22;69043;51.224;4.424;2023-07-30T15:50:35;19.80;99.90
31521;DHT22;69043;51.224;4.424;2023-07-30T15:53:00;19.90;99.90
31521;DHT22;69043;51.224;4.424;2023-07-30T15:55:26;20.10;99.90
31521;DHT22;69043;51.224;4.424;2023-07-30T15:57:52;20.10;99.90
31521;DHT22;69043;51.224;4.424;2023-07-30T16:00:19;20.20;99.90
31521;DHT22;69043;51.224;4.424;2023-07-30T16:02:45;20.20;99.90
31521;DHT22;69043;51.224;4.424;2023-07-30T16:05:11;20.30;99.90
31521;DHT22;69043;51.224;4.424;2023-07-30T16:07:37;20.40;99.90
31521;DHT22;69043;51.224;4.424;2023-07-30T16:10:04;20.50;99.90
31521;DHT22;69043;51.224;4.424;2023-07-30T16:12:30;20.50;99.90
31521;DHT22;69043;51.224;4.424;2023-07-30T16:14:57;20.50;99.90
31521;DHT22;69043;51.224;4.424;2023-07-30T16:17:22;20.60;99.90
31521;DHT22;69043;51.224;4.424;2023-07-30T16:19:48;20.70;99.90
31521;DHT22;69043;51.224;4.424;2023-07-30T16:22:14;20.80;99.90
31521;DHT22;69043;51.224;4.424;2023-07-30T16:24:40;20.80;99.90
31521;DHT22;69043;51.224;4.424;2023-07-30T16:27:06;20.70;99.90
31521;DHT22;69043;51.224;4.424;2023-07-30T16:29:31;20.80;99.90
31521;DHT22;69043;51.224;4.424;2023-07-30T16:31:58;20.70;99.90
31521;DHT22;69043;51.224;4.424;2023-07-30T16:34:24;20.70;99.90
31521;DHT22;69043;51.224;4.424;2023-07-30T16:36:50;20.60;99.90
31521;DHT22;69043;51.224;4.424;2023-07-30T16:39:15;20.40;99.90
31521;DHT22;69043;51.224;4.424;2023-07-30T16:41:41;20.30;99.90
31521;DHT22;69043;51.224;4.424;2023-07-30T16:44:07;20.30;99.90
31521;DHT22;69043;51.224;4.424;2023-07-30T16:46:33;20.20;99.90
31521;DHT22;69043;51.224;4.424;2023-07-30T16:48:58;20.10;99.90
31521;DHT22;69043;51.224;4.424;2023-07-30T16:51:24;19.90;99.90
31521;DHT22;69043;51.224;4.424;2023-07-30T16:53:50;19.80;99.90
31521;DHT22;69043;51.224;4.424;2023-07-30T16:56:16;19.60;99.90
31521;DHT22;69043;51.224;4.424;2023-07-30T16:58:42;19.50;99.90
31521;DHT22;69043;51.224;4.424;2023-07-30T17:01:08;19.30;99.90
31521;DHT22;69043;51.224;4.424;2023-07-30T17:03:37;19.10;99.90
31521;DHT22;69043;51.224;4.424;2023-07-30T17:06:03;18.90;99.90
31521;DHT22;69043;51.224;4.424;2023-07-30T17:08:30;18.90;99.90
31521;DHT22;69043;51.224;4.424;2023-07-30T17:10:56;18.90;99.90
31521;DHT22;69043;51.224;4.424;2023-07-30T17:13:25;18.90;99.90
31521;DHT22;69043;51.224;4.424;2023-07-30T17:15:50;18.90;99.90
31521;DHT22;69043;51.224;4.424;2023-07-30T17:18:16;18.70;99.90
31521;DHT22;69043;51.224;4.424;2023-07-30T17:20:42;18.80;99.90
31521;DHT22;69043;51.224;4.424;2023-07-30T17:23:09;18.80;99.90
31521;DHT22;69043;51.224;4.424;2023-07-30T17:25:35;18.70;99.90
31521;DHT22;69043;51.224;4.424;2023-07-30T17:28:00;18.60;99.90
31521;DHT22;69043;51.224;4.424;2023-07-30T17:30:26;18.60;99.90
31521;DHT22;69043;51.224;4.424;2023-07-30T17:32:52;18.60;99.90
31521;DHT22;69043;51.224;4.424;2023-07-30T17:35:17;18.70;99.90
31521;DHT22;69043;51.224;4.424;2023-07-30T17:37:43;18.60;99.90
31521;DHT22;69043;51.224;4.424;2023-07-30T17:40:10;18.70;99.90
31521;DHT22;69043;51.224;4.424;2023-07-30T17:42:37;18.60;99.90
31521;DHT22;69043;51.224;4.424;2023-07-30T17:45:04;18.50;99.90
31521;DHT22;69043;51.224;4.424;2023-07-30T17:47:29;18.40;99.90
31521;DHT22;69043;51.224;4.424;2023-07-30T17:49:56;18.40;99.90
31521;DHT22;69043;51.224;4.424;2023-07-30T17:52:22;18.60;99.90
31521;DHT22;69043;51.224;4.424;2023-07-30T17:54:49;18.40;99.90
31521;DHT22;69043;51.224;4.424;2023-07-30T17:57:15;18.30;99.90
31521;DHT22;69043;51.224;4.424;2023-07-30T17:59:41;18.30;99.90
31521;DHT22;69043;51.224;4.424;2023-07-30T18:02:06;18.30;99.90
31521;DHT22;69043;51.224;4.424;2023-07-30T18:04:32;18.30;99.90
31521;DHT22;69043;51.224;4.424;2023-07-30T18:06:58;18.40;99.90
31521;DHT22;69043;51.224;4.424;2023-07-30T18:09:24;18.40;99.90
31521;DHT22;69043;51.224;4.424;2023-07-30T18:11:50;18.50;99.90
31521;DHT22;69043;51.224;4.424;2023-07-30T18:14:15;18.50;99.90
31521;DHT22;69043;51.224;4.424;2023-07-30T18:16:41;18.30;99.90
31521;DHT22;69043;51.224;4.424;2023-07-30T18:19:07;18.20;99.90
31521;DHT22;69043;51.224;4.424;2023-07-30T18:21:32;18.20;99.90
31521;DHT22;69043;51.224;4.424;2023-07-30T18:23:58;18.30;99.90
31521;DHT22;69043;51.224;4.424;2023-07-30T18:26:24;18.10;99.90
31521;DHT22;69043;51.224;4.424;2023-07-30T18:28:50;18.20;99.90
31521;DHT22;69043;51.224;4.424;2023-07-30T18:31:16;18.20;99.90
31521;DHT22;69043;51.224;4.424;2023-07-30T18:33:42;18.30;99.90
31521;DHT22;69043;51.224;4.424;2023-07-30T18:36:08;18.20;99.90
31521;DHT22;69043;51.224;4.424;2023-07-30T18:38:33;18.30;99.90
31521;DHT22;69043;51.224;4.424;2023-07-30T18:41:06;18.30;99.90
31521;DHT22;69043;51.224;4.424;2023-07-30T18:43:33;18.30;99.90
31521;DHT22;69043;51.224;4.424;2023-07-30T18:45:59;18.30;99.90
31521;DHT22;69043;51.224;4.424;2023-07-30T18:48:25;18.30;99.90
31521;DHT22;69043;51.224;4.424;2023-07-30T18:50:53;18.30;99.90
31521;DHT22;69043;51.224;4.424;2023-07-30T18:53:19;18.20;99.90
31521;DHT22;69043;51.224;4.424;2023-07-30T18:55:47;18.40;99.90
31521;DHT22;69043;51.224;4.424;2023-07-30T18:58:14;18.40;99.90
31521;DHT22;69043;51.224;4.424;2023-07-30T19:00:40;18.40;99.90
31521;DHT22;69043;51.224;4.424;2023-07-30T19:03:06;18.30;99.90
31521;DHT22;69043;51.224;4.424;2023-07-30T19:05:32;18.20;99.90
31521;DHT22;69043;51.224;4.424;2023-07-30T19:07:57;18.30;99.90
31521;DHT22;69043;51.224;4.424;2023-07-30T19:10:28;18.50;99.90
31521;DHT22;69043;51.224;4.424;2023-07-30T19:12:57;18.40;99.90
31521;DHT22;69043;51.224;4.424;2023-07-30T19:15:23;18.40;99.90
31521;DHT22;69043;51.224;4.424;2023-07-30T19:17:49;18.40;99.90
31521;DHT22;69043;51.224;4.424;2023-07-30T19:20:15;18.30;99.90
31521;DHT22;69043;51.224;4.424;2023-07-30T19:22:41;18.40;99.90
31521;DHT22;69043;51.224;4.424;2023-07-30T19:25:07;18.40;99.90
31521;DHT22;69043;51.224;4.424;2023-07-30T19:27:32;18.40;99.90
31521;DHT22;69043;51.224;4.424;2023-07-30T19:29:58;18.50;99.90
31521;DHT22;69043;51.224;4.424;2023-07-30T19:32:24;18.40;99.90
31521;DHT22;69043;51.224;4.424;2023-07-30T19:34:49;18.30;99.90
31521;DHT22;69043;51.224;4.424;2023-07-30T19:37:15;18.30;99.90
31521;DHT22;69043;51.224;4.424;2023-07-30T19:39:41;18.30;99.90
31521;DHT22;69043;51.224;4.424;2023-07-30T19:42:06;18.40;99.90
31521;DHT22;69043;51.224;4.424;2023-07-30T19:44:32;18.40;99.90
31521;DHT22;69043;51.224;4.424;2023-07-30T19:46:58;18.40;99.90
31521;DHT22;69043;51.224;4.424;2023-07-30T19:49:23;18.40;99.90
31521;DHT22;69043;51.224;4.424;2023-07-30T19:51:49;18.40;99.90
31521;DHT22;69043;51.224;4.424;2023-07-30T19:54:15;18.50;99.90
31521;DHT22;69043;51.224;4.424;2023-07-30T19:56:40;18.40;99.90
31521;DHT22;69043;51.224;4.424;2023-07-30T19:59:06;18.50;99.90
31521;DHT22;69043;51.224;4.424;2023-07-30T20:01:32;18.50;99.90
31521;DHT22;69043;51.224;4.424;2023-07-30T20:03:57;18.50;99.90
31521;DHT22;69043;51.224;4.424;2023-07-30T20:06:23;18.50;99.90
31521;DHT22;69043;51.224;4.424;2023-07-30T20:08:49;18.50;99.90
31521;DHT22;69043;51.224;4.424;2023-07-30T20:11:15;18.50;99.90
31521;DHT22;69043;51.224;4.424;2023-07-30T20:13:41;18.60;99.90
31521;DHT22;69043;51.224;4.424;2023-07-30T20:16:13;18.50;99.90
31521;DHT22;69043;51.224;4.424;2023-07-30T20:18:39;18.40;99.90
31521;DHT22;69043;51.224;4.424;2023-07-30T20:21:09;18.40;99.90
31521;DHT22;69043;51.224;4.424;2023-07-30T20:23:35;18.50;99.90
31521;DHT22;69043;51.224;4.424;2023-07-30T20:26:01;18.40;99.90
31521;DHT22;69043;51.224;4.424;2023-07-30T20:28:28;18.30;99.90
31521;DHT22;69043;51.224;4.424;2023-07-30T20:30:54;18.20;99.90
31521;DHT22;69043;51.224;4.424;2023-07-30T20:33:20;18.30;99.90
31521;DHT22;69043;51.224;4.424;2023-07-30T20:35:48;18.30;99.90
31521;DHT22;69043;51.224;4.424;2023-07-30T20:38:14;18.20;99.90
31521;DHT22;69043;51.224;4.424;2023-07-30T20:40:40;18.20;99.90
31521;DHT22;69043;51.224;4.424;2023-07-30T20:43:05;18.20;99.90
31521;DHT22;69043;51.224;4.424;2023-07-30T20:45:31;18.20;99.90
31521;DHT22;69043;51.224;4.424;2023-07-30T20:47:57;18.20;99.90
31521;DHT22;69043;51.224;4.424;2023-07-30T20:50:22;18.10;99.90
31521;DHT22;69043;51.224;4.424;2023-07-30T20:52:48;18.00;99.90
31521;DHT22;69043;51.224;4.424;2023-07-30T20:55:16;17.90;99.90
31521;DHT22;69043;51.224;4.424;2023-07-30T20:57:42;17.90;99.90
31521;DHT22;69043;51.224;4.424;2023-07-30T21:00:08;18.00;99.90
31521;DHT22;69043;51.224;4.424;2023-07-30T21:02:35;18.00;99.90
31521;DHT22;69043;51.224;4.424;2023-07-30T21:05:01;18.00;99.90
31521;DHT22;69043;51.224;4.424;2023-07-30T21:07:27;18.10;99.90
31521;DHT22;69043;51.224;4.424;2023-07-30T21:09:53;18.10;99.90
31521;DHT22;69043;51.224;4.424;2023-07-30T21:12:20;18.00;99.90
31521;DHT22;69043;51.224;4.424;2023-07-30T21:14:46;18.10;99.90
31521;DHT22;69043;51.224;4.424;2023-07-30T21:17:16;18.10;99.90
31521;DHT22;69043;51.224;4.424;2023-07-30T21:19:42;18.10;99.90
31521;DHT22;69043;51.224;4.424;2023-07-30T21:22:07;18.10;99.90
31521;DHT22;69043;51.224;4.424;2023-07-30T21:24:33;18.10;99.90
31521;DHT22;69043;51.224;4.424;2023-07-30T21:26:59;18.00;99.90
31521;DHT22;69043;51.224;4.424;2023-07-30T21:29:24;18.00;99.90
31521;DHT22;69043;51.224;4.424;2023-07-30T21:31:50;17.90;99.90
31521;DHT22;69043;51.224;4.424;2023-07-30T21:34:15;18.00;99.90
31521;DHT22;69043;51.224;4.424;2023-07-30T21:36:41;18.00;99.90
31521;DHT22;69043;51.224;4.424;2023-07-30T21:39:07;18.00;99.90
31521;DHT22;69043;51.224;4.424;2023-07-30T21:41:33;18.00;99.90
31521;DHT22;69043;51.224;4.424;2023-07-30T21:43:59;18.00;99.90
31521;DHT22;69043;51.224;4.424;2023-07-30T21:46:24;18.00;99.90
31521;DHT22;69043;51.224;4.424;2023-07-30T21:48:50;18.00;99.90
31521;DHT22;69043;51.224;4.424;2023-07-30T21:51:16;18.10;99.90
31521;DHT22;69043;51.224;4.424;2023-07-30T21:53:41;18.00;99.90
31521;DHT22;69043;51.224;4.424;2023-07-30T21:56:08;18.00;99.90
31521;DHT22;69043;51.224;4.424;2023-07-30T21:58:34;18.10;99.90
31521;DHT22;69043;51.224;4.424;2023-07-30T22:01:01;18.10;99.90
31521;DHT22;69043;51.224;4.424;2023-07-30T22:03:27;18.20;99.90
31521;DHT22;69043;51.224;4.424;2023-07-30T22:05:54;18.20;99.90
31521;DHT22;69043;51.224;4.424;2023-07-30T22:08:20;18.10;99.90
31521;DHT22;69043;51.224;4.424;2023-07-30T22:10:47;18.10;99.90
31521;DHT22;69043;51.224;4.424;2023-07-30T22:13:15;18.00;99.90
31521;DHT22;69043;51.224;4.424;2023-07-30T22:15:45;18.00;99.90
31521;DHT22;69043;51.224;4.424;2023-07-30T22:18:10;18.00;99.90
31521;DHT22;69043;51.224;4.424;2023-07-30T22:20:36;18.00;99.90
31521;DHT22;69043;51.224;4.424;2023-07-30T22:23:02;18.00;99.90
31521;DHT22;69043;51.224;4.424;2023-07-30T22:25:28;18.00;99.90
31521;DHT22;69043;51.224;4.424;2023-07-30T22:27:54;18.10;99.90
31521;DHT22;69043;51.224;4.424;2023-07-30T22:30:20;18.10;99.90
31521;DHT22;69043;51.224;4.424;2023-07-30T22:32:46;18.10;99.90
31521;DHT22;69043;51.224;4.424;2023-07-30T22:35:11;18.10;99.90
31521;DHT22;69043;51.224;4.424;2023-07-30T22:37:37;18.10;99.90
31521;DHT22;69043;51.224;4.424;2023-07-30T22:40:03;18.10;99.90
31521;DHT22;69043;51.224;4.424;2023-07-30T22:42:30;18.20;99.90
31521;DHT22;69043;51.224;4.424;2023-07-30T22:44:56;18.10;99.90
31521;DHT22;69043;51.224;4.424;2023-07-30T22:47:21;18.20;99.90
31521;DHT22;69043;51.224;4.424;2023-07-30T22:49:47;18.40;99.90
31521;DHT22;69043;51.224;4.424;2023-07-30T22:52:13;18.50;99.90
31521;DHT22;69043;51.224;4.424;2023-07-30T22:54:39;18.40;99.90
31521;DHT22;69043;51.224;4.424;2023-07-30T22:57:06;18.40;99.90
31521;DHT22;69043;51.224;4.424;2023-07-30T22:59:32;18.40;99.90
31521;DHT22;69043;51.224;4.424;2023-07-30T23:01:58;18.40;99.90
31521;DHT22;69043;51.224;4.424;2023-07-30T23:04:24;18.40;99.90
31521;DHT22;69043;51.224;4.424;2023-07-30T23:06:50;18.30;99.90
31521;DHT22;69043;51.224;4.424;2023-07-30T23:09:16;18.40;99.90
31521;DHT22;69043;51.224;4.424;2023-07-30T23:11:42;18.20;99.90
31521;DHT22;69043;51.224;4.424;2023-07-30T23:14:08;18.30;99.90
31521;DHT22;69043;51.224;4.424;2023-07-30T23:16:34;18.40;99.90
31521;DHT22;69043;51.224;4.424;2023-07-30T23:19:00;18.50;99.90
31521;DHT22;69043;51.224;4.424;2023-07-30T23:21:26;18.50;99.90
31521;DHT22;69043;51.224;4.424;2023-07-30T23:23:51;18.60;99.90
31521;DHT22;69043;51.224;4.424;2023-07-30T23:26:17;18.70;99.90
31521;DHT22;69043;51.224;4.424;2023-07-30T23:28:42;18.70;99.90
31521;DHT22;69043;51.224;4.424;2023-07-30T23:31:09;18.70;99.90
31521;DHT22;69043;51.224;4.424;2023-07-30T23:33:35;18.60;99.90
31521;DHT22;69043;51.224;4.424;2023-07-30T23:36:10;18.70;99.90
31521;DHT22;69043;51.224;4.424;2023-07-30T23:38:36;18.70;99.90
31521;DHT22;69043;51.224;4.424;2023-07-30T23:41:02;18.70;99.90
31521;DHT22;69043;51.224;4.424;2023-07-30T23:43:29;18.80;99.90
31521;DHT22;69043;51.224;4.424;2023-07-30T23:45:54;18.70;99.90
31521;DHT22;69043;51.224;4.424;2023-07-30T23:48:20;18.60;99.90
31521;DHT22;69043;51.224;4.424;2023-07-30T23:50:46;18.50;99.90
31521;DHT22;69043;51.224;4.424;2023-07-30T23:53:11;18.40;99.90
31521;DHT22;69043;51.224;4.424;2023-07-30T23:55:37;18.40;99.90
31521;DHT22;69043;51.224;4.424;2023-07-30T23:58:03;18.50;99.90
